Aura, New Jersey
Current Conditions -  °F | °C
As of 9:54 PM on Tuesday 25 Nov 2014 (Local Time) from KPHL Reporting Station
Overcast Overcast  
Wind Chill:   Ceiling: 18000
Heat Index:   Visibility: 10mi
Dew Point:   Wind: 0mph
Humidity: 58%   Direction: NA
Pressure: 30.16"   Gusts: NA
Location:  39.6996°N, 75.1187°W
Report Text: KPHL 260254Z 00000KT 10SM BKN180 OVC250 09/01 A3016 RMK AO2 SLP212 T00890011 51017 $
Loading
Personal Weather Stations






























Interactive Weather Map New forecast layout! Learn more

10-Day Weather Forecast

Advertisements
Track Severe Weather on mobile